createdAt,value
2023-02-25T00:01:03.869Z,50.58
2023-02-25T00:03:30.252Z,50.20
2023-02-25T00:05:56.532Z,50.79
2023-02-25T00:08:22.772Z,52.63
2023-02-25T00:10:49.034Z,52.90
2023-02-25T00:13:35.308Z,53.17
2023-02-25T00:16:08.996Z,53.76
2023-02-25T00:18:35.296Z,54.42
2023-02-25T00:21:01.551Z,54.69
2023-02-25T00:23:27.825Z,54.77
2023-02-25T00:25:54.063Z,54.06
2023-02-25T00:28:20.309Z,50.75
2023-02-25T00:30:46.673Z,50.91
2023-02-25T00:33:12.972Z,50.86
2023-02-25T00:35:39.238Z,50.94
2023-02-25T00:38:15.288Z,51.44
2023-02-25T00:40:42.411Z,52.08
2023-02-25T00:43:08.662Z,52.12
2023-02-25T00:45:34.912Z,52.51
2023-02-25T00:48:01.162Z,52.63
2023-02-25T00:50:27.410Z,53.16
2023-02-25T00:52:53.644Z,51.75
2023-02-25T00:55:19.927Z,51.27
2023-02-25T00:57:46.218Z,51.15
2023-02-25T01:00:12.483Z,50.67
2023-02-25T01:02:38.763Z,50.54
2023-02-25T01:05:05.796Z,50.81
2023-02-25T01:07:32.279Z,50.67
2023-02-25T01:09:58.515Z,50.75
2023-02-25T01:12:24.854Z,51.45
2023-02-25T01:14:51.099Z,53.03
2023-02-25T01:17:17.348Z,53.57
2023-02-25T01:19:43.592Z,52.72
2023-02-25T01:22:09.821Z,52.90
2023-02-25T01:24:36.068Z,50.60
2023-02-25T01:27:02.341Z,50.89
2023-02-25T01:29:28.610Z,51.12
2023-02-25T01:31:55.063Z,49.87
2023-02-25T01:34:21.407Z,51.17
2023-02-25T01:36:47.674Z,52.41
2023-02-25T01:39:13.909Z,52.81
2023-02-25T01:41:40.143Z,53.98
2023-02-25T01:44:06.425Z,54.76
2023-02-25T01:46:32.714Z,55.40
2023-02-25T01:48:58.969Z,55.31
2023-02-25T01:51:25.216Z,55.32
2023-02-25T01:53:51.454Z,56.12
2023-02-25T01:56:17.777Z,55.69
2023-02-25T01:58:44.001Z,54.86
2023-02-25T02:01:10.287Z,54.66
2023-02-25T02:03:36.668Z,54.92
2023-02-25T02:06:02.904Z,54.80
2023-02-25T02:08:29.141Z,54.68
2023-02-25T02:10:55.408Z,55.63
2023-02-25T02:13:21.680Z,55.87
2023-02-25T02:15:47.916Z,55.68
2023-02-25T02:18:14.240Z,55.97
2023-02-25T02:20:40.519Z,56.33
2023-02-25T02:23:06.805Z,55.18
2023-02-25T02:25:33.130Z,56.32
2023-02-25T02:27:59.418Z,56.96
2023-02-25T02:30:25.673Z,57.18
2023-02-25T02:32:51.965Z,56.77
2023-02-25T02:35:18.245Z,56.26
2023-02-25T02:37:44.477Z,56.44
2023-02-25T02:40:10.750Z,56.63
2023-02-25T02:42:37.022Z,56.63
2023-02-25T02:45:03.265Z,56.46
2023-02-25T02:47:29.503Z,56.55
2023-02-25T02:49:55.760Z,56.30
2023-02-25T02:52:21.993Z,56.23
2023-02-25T02:54:48.252Z,56.77
2023-02-25T02:57:14.520Z,56.88
2023-02-25T02:59:40.832Z,56.64
2023-02-25T03:02:07.105Z,56.53
2023-02-25T03:04:33.376Z,57.19
2023-02-25T03:06:59.652Z,57.21
2023-02-25T03:09:25.960Z,55.05
2023-02-25T03:11:52.193Z,55.18
2023-02-25T03:14:18.468Z,55.60
2023-02-25T03:16:44.788Z,55.32
2023-02-25T03:19:11.069Z,54.40
2023-02-25T03:21:37.319Z,53.53
2023-02-25T03:24:03.584Z,53.53
2023-02-25T03:26:29.818Z,53.58
2023-02-25T03:28:56.068Z,54.58
2023-02-25T03:31:22.442Z,55.52
2023-02-25T03:33:48.740Z,56.53
2023-02-25T03:36:15.005Z,57.32
2023-02-25T03:38:41.250Z,57.63
2023-02-25T03:41:07.481Z,57.31
2023-02-25T03:43:33.732Z,57.42
2023-02-25T03:46:00.021Z,57.53
2023-02-25T03:48:26.293Z,57.18
2023-02-25T03:50:52.529Z,56.97
2023-02-25T03:53:18.793Z,57.37
2023-02-25T03:55:45.041Z,57.45
2023-02-25T03:58:11.291Z,56.94
2023-02-25T04:00:37.536Z,56.08
2023-02-25T04:03:03.787Z,57.14
2023-02-25T04:05:30.037Z,57.72
2023-02-25T04:07:56.356Z,57.70
2023-02-25T04:10:22.648Z,58.00
2023-02-25T04:12:48.886Z,57.86
2023-02-25T04:15:15.166Z,57.70
2023-02-25T04:17:41.452Z,57.52
2023-02-25T04:20:07.685Z,58.09
2023-02-25T04:22:33.935Z,57.94
2023-02-25T04:25:00.322Z,57.36
2023-02-25T04:27:26.568Z,56.76
2023-02-25T04:29:52.806Z,57.17
2023-02-25T04:32:19.178Z,56.98
2023-02-25T04:34:45.479Z,56.99
2023-02-25T04:37:11.742Z,56.63
2023-02-25T04:39:38.014Z,56.97
2023-02-25T04:42:04.264Z,56.95
2023-02-25T04:44:30.529Z,57.01
2023-02-25T04:46:56.829Z,57.24
2023-02-25T04:49:23.060Z,56.98
2023-02-25T04:51:49.985Z,56.71
2023-02-25T04:54:16.305Z,57.26
2023-02-25T04:56:42.552Z,57.02
2023-02-25T04:59:08.809Z,57.10
2023-02-25T05:01:35.143Z,57.29
2023-02-25T05:04:01.624Z,57.37
2023-02-25T05:06:28.196Z,57.46
2023-02-25T05:08:54.429Z,57.44
2023-02-25T05:11:20.660Z,57.18
2023-02-25T05:13:46.937Z,56.61
2023-02-25T05:16:13.639Z,56.25
2023-02-25T05:18:39.914Z,56.24
2023-02-25T05:21:06.216Z,57.03
2023-02-25T05:23:32.496Z,57.20
2023-02-25T05:25:58.755Z,57.45
2023-02-25T05:28:25.044Z,57.72
2023-02-25T05:30:51.322Z,58.08
2023-02-25T05:33:17.617Z,58.34
2023-02-25T05:35:43.875Z,58.64
2023-02-25T05:38:10.201Z,58.70
2023-02-25T05:40:36.483Z,58.87
2023-02-25T05:43:02.751Z,59.70
2023-02-25T05:45:29.038Z,60.49
2023-02-25T05:47:55.285Z,59.85
2023-02-25T05:50:21.541Z,59.23
2023-02-25T05:52:47.805Z,59.76
2023-02-25T05:55:14.110Z,59.83
2023-02-25T05:57:40.347Z,60.26
2023-02-25T06:00:06.627Z,59.77
2023-02-25T06:02:32.888Z,59.74
2023-02-25T06:04:59.128Z,59.69
2023-02-25T06:07:25.452Z,59.83
2023-02-25T06:09:51.719Z,58.85
2023-02-25T06:12:17.973Z,58.21
2023-02-25T06:14:44.228Z,58.57
2023-02-25T06:17:10.471Z,58.46
2023-02-25T06:19:36.704Z,58.70
2023-02-25T06:22:02.965Z,57.77
2023-02-25T06:24:29.197Z,57.42
2023-02-25T06:26:55.460Z,57.64
2023-02-25T06:29:21.738Z,57.15
2023-02-25T06:31:48.160Z,57.59
2023-02-25T06:34:14.481Z,58.53
2023-02-25T06:36:40.719Z,59.21
2023-02-25T06:39:07.042Z,60.02
2023-02-25T06:41:34.571Z,59.02
2023-02-25T06:44:00.818Z,60.37
2023-02-25T06:46:27.549Z,60.31
2023-02-25T06:48:54.118Z,59.70
2023-02-25T06:51:20.428Z,59.10
2023-02-25T06:53:46.716Z,59.26
2023-02-25T06:56:12.969Z,59.38
2023-02-25T06:58:39.235Z,59.31
2023-02-25T07:01:05.544Z,59.03
2023-02-25T07:03:31.856Z,59.11
2023-02-25T07:05:58.106Z,58.44
2023-02-25T07:08:24.412Z,58.34
2023-02-25T07:10:50.695Z,59.11
2023-02-25T07:13:16.948Z,59.68
2023-02-25T07:15:43.284Z,59.71
2023-02-25T07:18:09.614Z,59.03
2023-02-25T07:20:35.865Z,57.99
2023-02-25T07:23:02.148Z,57.36
2023-02-25T07:25:28.451Z,57.18
2023-02-25T07:27:54.804Z,56.89
2023-02-25T07:30:21.055Z,56.87
2023-02-25T07:32:47.421Z,56.71
2023-02-25T07:35:13.800Z,57.26
2023-02-25T07:37:40.053Z,57.16
2023-02-25T07:40:06.336Z,56.80
2023-02-25T07:42:32.627Z,56.67
2023-02-25T07:45:01.753Z,56.22
2023-02-25T07:47:28.374Z,56.53
2023-02-25T07:49:54.668Z,56.15
2023-02-25T07:52:20.934Z,56.51
2023-02-25T07:54:47.197Z,57.02
2023-02-25T07:57:13.457Z,56.45
2023-02-25T07:59:39.723Z,56.24
2023-02-25T08:02:05.992Z,56.22
2023-02-25T08:04:32.301Z,56.32
2023-02-25T08:06:58.608Z,56.27
2023-02-25T08:09:24.835Z,56.56
2023-02-25T08:11:51.098Z,57.73
2023-02-25T08:14:17.402Z,57.95
2023-02-25T08:16:43.677Z,58.15
2023-02-25T08:19:09.936Z,57.91
2023-02-25T08:21:36.178Z,58.03
2023-02-25T08:24:02.468Z,56.73
2023-02-25T08:26:28.722Z,57.11
2023-02-25T08:28:55.031Z,57.08
2023-02-25T08:31:21.483Z,57.14
2023-02-25T08:33:47.905Z,56.38
2023-02-25T08:36:14.198Z,56.10
2023-02-25T08:38:40.503Z,56.28
2023-02-25T08:41:06.756Z,57.57
2023-02-25T08:43:33.022Z,62.55
2023-02-25T08:46:01.137Z,67.16
2023-02-25T08:48:27.569Z,66.38
2023-02-25T08:50:53.817Z,63.15
2023-02-25T08:53:20.076Z,62.55
2023-02-25T08:55:46.303Z,64.05
2023-02-25T08:58:12.605Z,65.33
2023-02-25T09:00:38.907Z,67.47
2023-02-25T09:03:05.157Z,67.12
2023-02-25T09:05:31.437Z,64.86
2023-02-25T09:07:57.699Z,62.60
2023-02-25T09:10:24.023Z,61.69
2023-02-25T09:12:51.593Z,60.48
2023-02-25T09:15:17.820Z,59.14
2023-02-25T09:17:44.082Z,59.76
2023-02-25T09:20:10.336Z,60.30
2023-02-25T09:22:36.582Z,60.04
2023-02-25T09:25:02.816Z,59.68
2023-02-25T09:27:29.054Z,60.32
2023-02-25T09:29:55.291Z,60.52
2023-02-25T09:32:21.655Z,60.70
2023-02-25T09:34:47.976Z,60.49
2023-02-25T09:37:14.206Z,60.73
2023-02-25T09:39:40.460Z,61.12
2023-02-25T09:42:06.732Z,61.77
2023-02-25T09:44:33.006Z,63.36
2023-02-25T09:46:59.241Z,63.37
2023-02-25T09:49:25.537Z,63.76
2023-02-25T09:51:51.814Z,63.83
2023-02-25T09:54:18.053Z,64.57
2023-02-25T09:56:44.302Z,65.42
2023-02-25T09:59:10.556Z,65.72
2023-02-25T10:01:36.798Z,66.96
2023-02-25T10:04:03.042Z,66.39
2023-02-25T10:06:29.296Z,65.62
2023-02-25T10:08:55.513Z,64.20
2023-02-25T10:11:22.024Z,63.28
2023-02-25T10:13:48.461Z,61.88
2023-02-25T10:16:14.705Z,62.00
2023-02-25T10:18:40.935Z,61.69
2023-02-25T10:21:07.193Z,61.56
2023-02-25T10:23:33.425Z,61.84
2023-02-25T10:25:59.692Z,61.38
2023-02-25T10:28:25.942Z,61.01
2023-02-25T10:30:52.298Z,61.42
2023-02-25T10:33:18.614Z,61.02
2023-02-25T10:35:44.874Z,60.57
2023-02-25T10:38:11.143Z,58.98
2023-02-25T10:40:37.460Z,58.20
2023-02-25T10:43:03.749Z,59.54
2023-02-25T10:45:29.976Z,60.31
2023-02-25T10:47:56.275Z,59.59
2023-02-25T10:50:27.623Z,59.16
2023-02-25T10:52:58.991Z,58.65
2023-02-25T10:55:25.285Z,56.80
2023-02-25T10:57:51.540Z,57.29
2023-02-25T11:00:17.870Z,57.68
2023-02-25T11:02:44.295Z,57.92
2023-02-25T11:05:10.617Z,57.96
2023-02-25T11:07:36.881Z,57.63
2023-02-25T11:10:03.215Z,58.14
2023-02-25T11:12:29.507Z,57.67
2023-02-25T11:14:55.764Z,57.46
2023-02-25T11:17:22.056Z,56.93
2023-02-25T11:19:48.324Z,56.91
2023-02-25T11:22:14.584Z,57.11
2023-02-25T11:24:40.852Z,58.13
2023-02-25T11:27:07.110Z,57.81
2023-02-25T11:29:33.394Z,58.08
2023-02-25T11:31:59.867Z,56.82
2023-02-25T11:34:26.224Z,56.76
2023-02-25T11:36:52.459Z,56.34
2023-02-25T11:39:18.700Z,56.10
2023-02-25T11:41:44.956Z,55.33
2023-02-25T11:44:11.214Z,56.17
2023-02-25T11:46:37.540Z,56.52
2023-02-25T11:49:03.920Z,56.23
2023-02-25T11:51:30.165Z,56.48
2023-02-25T11:53:56.494Z,55.56
2023-02-25T11:56:23.046Z,54.47
2023-02-25T11:58:49.463Z,54.83
2023-02-25T12:01:15.738Z,54.71
2023-02-25T12:03:42.030Z,53.77
2023-02-25T12:06:08.294Z,53.92
2023-02-25T12:08:34.541Z,53.11
2023-02-25T12:11:00.773Z,52.63
2023-02-25T12:13:27.016Z,52.93
2023-02-25T12:15:53.302Z,52.78
2023-02-25T12:18:19.560Z,52.47
2023-02-25T12:20:45.826Z,51.92
2023-02-25T12:23:12.119Z,51.15
2023-02-25T12:25:38.370Z,51.06
2023-02-25T12:28:04.605Z,51.24
2023-02-25T12:30:30.916Z,50.71
2023-02-25T12:32:57.253Z,50.40
2023-02-25T12:35:23.507Z,50.72
2023-02-25T12:37:49.781Z,49.79
2023-02-25T12:40:16.077Z,49.34
2023-02-25T12:42:42.308Z,48.79
2023-02-25T12:45:08.548Z,49.02
2023-02-25T12:47:34.881Z,48.62
2023-02-25T12:50:01.196Z,48.98
2023-02-25T12:52:27.492Z,48.58
2023-02-25T12:54:53.772Z,47.97
2023-02-25T12:57:20.080Z,47.99
2023-02-25T12:59:46.324Z,48.41
2023-02-25T13:02:12.551Z,48.08
2023-02-25T13:04:38.923Z,48.14
2023-02-25T13:07:05.164Z,48.72
2023-02-25T13:09:31.472Z,47.96
2023-02-25T13:12:13.186Z,47.78
2023-02-25T13:14:39.473Z,46.53
2023-02-25T13:17:05.736Z,47.40
2023-02-25T13:19:31.985Z,48.15
2023-02-25T13:21:58.289Z,47.74
2023-02-25T13:24:24.583Z,47.40
2023-02-25T13:26:50.816Z,46.96
2023-02-25T13:29:17.133Z,46.73
2023-02-25T13:31:43.501Z,47.60
2023-02-25T13:34:09.793Z,47.39
2023-02-25T13:36:36.081Z,48.75
2023-02-25T13:39:02.343Z,48.26
2023-02-25T13:41:28.573Z,47.76
2023-02-25T13:43:54.831Z,47.13
2023-02-25T13:46:21.111Z,46.56
2023-02-25T13:48:47.349Z,46.60
2023-02-25T13:51:13.588Z,46.08
2023-02-25T13:53:41.417Z,46.35
2023-02-25T13:56:07.756Z,45.41
2023-02-25T13:58:34.049Z,45.45
2023-02-25T14:01:00.322Z,44.92
2023-02-25T14:03:26.640Z,44.74
2023-02-25T14:05:52.968Z,44.44
2023-02-25T14:08:19.220Z,45.09
2023-02-25T14:10:45.520Z,45.41
2023-02-25T14:13:11.848Z,45.20
2023-02-25T14:15:38.169Z,45.27
2023-02-25T14:18:04.481Z,45.13
2023-02-25T14:20:30.741Z,44.50
2023-02-25T14:22:56.983Z,44.15
2023-02-25T14:25:23.301Z,44.15
2023-02-25T14:27:49.588Z,44.07
2023-02-25T14:30:15.870Z,43.80
2023-02-25T14:32:42.137Z,43.86
2023-02-25T14:35:08.401Z,43.67
2023-02-25T14:37:34.637Z,44.02
2023-02-25T14:40:00.889Z,44.25
2023-02-25T14:42:27.155Z,44.19
2023-02-25T14:44:53.412Z,43.78
2023-02-25T14:47:19.735Z,44.39
2023-02-25T14:49:46.093Z,44.15
2023-02-25T14:52:12.380Z,44.53
2023-02-25T14:54:38.671Z,44.14
2023-02-25T14:57:04.960Z,44.48
2023-02-25T14:59:31.198Z,45.44
2023-02-25T15:01:57.586Z,46.04
2023-02-25T15:04:23.937Z,46.65
2023-02-25T15:06:50.181Z,46.59
2023-02-25T15:09:16.505Z,45.88
2023-02-25T15:11:42.801Z,46.08
2023-02-25T15:14:09.024Z,46.04
2023-02-25T15:16:35.287Z,45.60
2023-02-25T15:19:01.629Z,45.31
2023-02-25T15:21:27.958Z,46.65
2023-02-25T15:23:54.209Z,46.65
2023-02-25T15:26:20.498Z,46.47
2023-02-25T15:28:48.131Z,46.56
2023-02-25T15:31:14.504Z,46.45
2023-02-25T15:33:40.842Z,46.18
2023-02-25T15:36:07.129Z,46.64
2023-02-25T15:38:33.385Z,46.69
2023-02-25T15:40:59.684Z,46.80
2023-02-25T15:43:25.969Z,47.15
2023-02-25T15:45:52.214Z,47.43
2023-02-25T15:48:18.482Z,47.26
2023-02-25T15:50:44.760Z,47.49
2023-02-25T15:53:11.006Z,47.37
2023-02-25T15:55:37.289Z,47.46
2023-02-25T15:58:03.603Z,47.91
2023-02-25T16:00:29.898Z,47.29
2023-02-25T16:02:56.562Z,47.33
2023-02-25T16:05:23.640Z,48.37
2023-02-25T16:07:49.866Z,48.60
2023-02-25T16:10:16.148Z,48.51
2023-02-25T16:12:42.434Z,48.95
2023-02-25T16:15:08.681Z,49.13
2023-02-25T16:17:34.902Z,47.41
2023-02-25T16:20:01.129Z,46.62
2023-02-25T16:22:27.381Z,46.61
2023-02-25T16:24:53.614Z,46.14
2023-02-25T16:27:19.847Z,45.60
2023-02-25T16:29:46.072Z,45.63
2023-02-25T16:32:12.498Z,44.19
2023-02-25T16:34:39.629Z,44.42
2023-02-25T16:37:05.891Z,44.62
2023-02-25T16:39:32.181Z,44.45
2023-02-25T16:41:58.459Z,44.65
2023-02-25T16:44:24.695Z,44.01
2023-02-25T16:46:50.940Z,43.39
2023-02-25T16:49:17.196Z,44.15
2023-02-25T16:51:43.437Z,43.23
2023-02-25T16:54:09.704Z,44.07
2023-02-25T16:56:36.012Z,43.75
2023-02-25T16:59:02.250Z,45.20
2023-02-25T17:01:28.570Z,46.82
2023-02-25T17:03:54.891Z,48.58
2023-02-25T17:06:21.235Z,48.70
2023-02-25T17:08:47.520Z,48.60
2023-02-25T17:11:13.745Z,48.90
2023-02-25T17:13:39.999Z,49.17
2023-02-25T17:16:06.252Z,49.49
2023-02-25T17:18:32.508Z,50.53
2023-02-25T17:20:59.912Z,50.73
2023-02-25T17:23:26.190Z,50.99
2023-02-25T17:25:52.467Z,51.11
2023-02-25T17:28:18.750Z,51.03
2023-02-25T17:30:45.008Z,51.75
2023-02-25T17:33:11.345Z,52.32
2023-02-25T17:35:37.613Z,52.54
2023-02-25T17:38:03.874Z,53.32
2023-02-25T17:40:30.161Z,53.84
2023-02-25T17:42:56.461Z,54.20
2023-02-25T17:45:22.714Z,55.82
2023-02-25T17:47:48.949Z,56.63
2023-02-25T17:50:15.193Z,56.63
2023-02-25T17:52:41.437Z,56.77
2023-02-25T17:55:07.716Z,56.85
2023-02-25T17:57:33.986Z,57.16
2023-02-25T18:00:00.269Z,56.99
2023-02-25T18:02:26.560Z,57.51
2023-02-25T18:04:52.848Z,57.69
2023-02-25T18:07:19.094Z,57.86
2023-02-25T18:09:45.341Z,57.77
2023-02-25T18:12:11.596Z,58.00
2023-02-25T18:14:37.902Z,57.99
2023-02-25T18:17:04.137Z,58.81
2023-02-25T18:19:30.414Z,59.41
2023-02-25T18:21:56.705Z,59.65
2023-02-25T18:24:22.960Z,59.29
2023-02-25T18:26:49.260Z,59.32
2023-02-25T18:29:15.528Z,59.28
2023-02-25T18:31:41.798Z,58.79
2023-02-25T18:34:08.179Z,58.21
2023-02-25T18:36:34.460Z,58.36
2023-02-25T18:39:00.715Z,58.34
2023-02-25T18:41:27.002Z,59.30
2023-02-25T18:43:53.277Z,59.48
2023-02-25T18:46:19.566Z,60.09
2023-02-25T18:48:45.881Z,60.73
2023-02-25T18:51:12.313Z,61.13
2023-02-25T18:53:38.545Z,61.06
2023-02-25T18:56:04.965Z,61.00
2023-02-25T18:58:31.246Z,61.31
2023-02-25T19:00:57.597Z,61.07
2023-02-25T19:03:23.909Z,59.91
2023-02-25T19:05:50.156Z,60.17
2023-02-25T19:08:16.438Z,60.26
2023-02-25T19:10:42.698Z,60.23
2023-02-25T19:13:09.000Z,60.48
2023-02-25T19:15:35.247Z,60.05
2023-02-25T19:18:01.488Z,60.18
2023-02-25T19:20:27.754Z,61.23
2023-02-25T19:22:54.052Z,62.44
2023-02-25T19:25:21.704Z,62.41
2023-02-25T19:27:47.939Z,62.23
2023-02-25T19:30:14.285Z,62.93
2023-02-25T19:32:40.551Z,63.25
2023-02-25T19:35:06.873Z,62.94
2023-02-25T19:37:33.112Z,63.59
2023-02-25T19:39:59.380Z,65.92
2023-02-25T19:42:25.659Z,67.48
2023-02-25T19:44:51.880Z,67.00
2023-02-25T19:47:18.109Z,67.73
2023-02-25T19:49:44.372Z,67.67
2023-02-25T19:52:10.605Z,68.40
2023-02-25T19:54:36.962Z,71.59
2023-02-25T19:57:03.253Z,73.71
2023-02-25T19:59:29.500Z,74.43
2023-02-25T20:01:55.760Z,73.66
2023-02-25T20:04:22.045Z,71.54
2023-02-25T20:06:48.348Z,70.58
2023-02-25T20:09:14.592Z,69.88
2023-02-25T20:11:40.873Z,69.69
2023-02-25T20:14:07.180Z,68.72
2023-02-25T20:16:33.466Z,68.36
2023-02-25T20:18:59.729Z,68.10
2023-02-25T20:21:25.973Z,69.16
2023-02-25T20:23:52.237Z,69.05
2023-02-25T20:26:18.564Z,68.49
2023-02-25T20:28:44.884Z,67.73
2023-02-25T20:31:11.132Z,68.14
2023-02-25T20:33:37.425Z,68.01
2023-02-25T20:36:03.718Z,67.27
2023-02-25T20:38:30.016Z,67.66
2023-02-25T20:40:56.279Z,67.52
2023-02-25T20:43:22.534Z,67.51
2023-02-25T20:45:48.792Z,66.98
2023-02-25T20:48:15.086Z,67.26
2023-02-25T20:50:41.369Z,70.49
2023-02-25T20:53:07.624Z,70.29
2023-02-25T20:55:33.900Z,70.94
2023-02-25T20:58:00.154Z,73.79
2023-02-25T21:00:26.404Z,75.04
2023-02-25T21:02:52.665Z,73.39
2023-02-25T21:05:18.929Z,74.19
2023-02-25T21:07:45.216Z,74.75
2023-02-25T21:10:11.463Z,74.39
2023-02-25T21:12:37.692Z,74.05
2023-02-25T21:15:03.911Z,73.05
2023-02-25T21:17:30.172Z,72.40
2023-02-25T21:19:56.437Z,71.91
2023-02-25T21:22:22.689Z,71.45
2023-02-25T21:24:48.931Z,70.99
2023-02-25T21:27:15.184Z,71.43
2023-02-25T21:29:41.424Z,71.14
2023-02-25T21:32:07.737Z,72.41
2023-02-25T21:34:33.987Z,72.19
2023-02-25T21:37:00.210Z,70.86
2023-02-25T21:39:26.489Z,70.82
2023-02-25T21:41:52.751Z,70.87
2023-02-25T21:44:19.012Z,71.24
2023-02-25T21:46:45.265Z,71.43
2023-02-25T21:49:11.575Z,71.07
2023-02-25T21:51:37.889Z,70.91
2023-02-25T21:54:04.138Z,72.05
2023-02-25T21:56:30.413Z,72.64
2023-02-25T21:58:56.670Z,72.72
2023-02-25T22:01:23.003Z,75.17
2023-02-25T22:03:49.263Z,75.14
2023-02-25T22:06:15.523Z,74.05
2023-02-25T22:08:41.802Z,74.13
2023-02-25T22:11:08.105Z,74.89
2023-02-25T22:13:34.328Z,75.78
2023-02-25T22:16:02.549Z,76.32
2023-02-25T22:18:28.832Z,77.49
2023-02-25T22:20:55.079Z,76.29
2023-02-25T22:23:21.327Z,75.24
2023-02-25T22:25:47.577Z,74.80
2023-02-25T22:28:13.817Z,75.70
2023-02-25T22:30:40.106Z,76.35
2023-02-25T22:33:06.345Z,75.67
2023-02-25T22:35:32.604Z,75.53
2023-02-25T22:37:58.874Z,75.01
2023-02-25T22:40:25.161Z,75.32
2023-02-25T22:42:51.406Z,75.25
2023-02-25T22:45:17.753Z,74.59
2023-02-25T22:47:44.140Z,74.02
2023-02-25T22:50:10.455Z,74.57
2023-02-25T22:52:36.718Z,75.21
2023-02-25T22:55:02.984Z,75.37
2023-02-25T22:57:29.246Z,75.48
2023-02-25T22:59:55.511Z,75.68
2023-02-25T23:02:21.768Z,75.64
2023-02-25T23:04:48.021Z,74.88
2023-02-25T23:07:14.283Z,76.15
2023-02-25T23:09:40.603Z,77.31
2023-02-25T23:12:06.940Z,76.91
2023-02-25T23:14:33.182Z,77.04
2023-02-25T23:16:59.506Z,76.92
2023-02-25T23:19:25.756Z,76.38
2023-02-25T23:21:52.024Z,75.69
2023-02-25T23:24:18.344Z,75.55
2023-02-25T23:26:44.638Z,74.97
2023-02-25T23:29:10.917Z,73.99
2023-02-25T23:31:37.226Z,73.32
2023-02-25T23:34:03.520Z,73.06
2023-02-25T23:36:29.759Z,73.03
2023-02-25T23:38:56.054Z,73.14
2023-02-25T23:41:22.394Z,73.27
2023-02-25T23:43:48.621Z,73.49
2023-02-25T23:46:14.907Z,73.18
2023-02-25T23:48:41.163Z,73.55
2023-02-25T23:51:07.406Z,73.45
2023-02-25T23:53:33.645Z,73.73
2023-02-25T23:55:59.885Z,74.01
2023-02-25T23:58:26.123Z,73.55
